Time;durP1;ratioP1;P1;durP2;ratioP2;P2;SDS_P1;SDS_P2;PMS_P1;PMS_P2;Temp;Humidity;BMP_temperature;BMP_pressure;BME280_temperature;BME280_humidity;BME280_pressure;Samples;Min_cycle;Max_cycle;Signal;HPM_P1;HPM_P2
2022/08/30 00:03:02;;;;;;;11.90;10.60;;;15.90;99.90;;;;;;5106430;28;20292;-89
2022/08/30 00:05:30;;;;;;;12.80;9.73;;;15.90;99.90;;;;;;5104096;28;20548;-89
2022/08/30 00:07:57;;;;;;;12.02;10.32;;;15.90;99.90;;;;;;5111753;28;20208;-89
2022/08/30 00:10:44;;;;;;;11.50;10.02;;;15.90;99.90;;;;;;5104880;28;20206;-89
2022/08/30 00:13:13;;;;;;;14.15;10.55;;;15.80;99.90;;;;;;5105679;28;20206;-89
2022/08/30 00:15:42;;;;;;;13.75;10.05;;;15.80;99.90;;;;;;5104215;28;20212;-89
2022/08/30 00:18:10;;;;;;;10.82;9.73;;;15.70;99.90;;;;;;5112228;28;20203;-89
2022/08/30 00:20:37;;;;;;;11.68;10.45;;;15.70;99.90;;;;;;5109158;28;20223;-89
2022/08/30 00:23:05;;;;;;;12.57;10.20;;;15.70;99.90;;;;;;5114984;28;20221;-89
2022/08/30 00:25:32;;;;;;;10.43;9.43;;;15.80;99.90;;;;;;5101553;28;20613;-89
2022/08/30 00:28:00;;;;;;;11.48;9.60;;;15.80;99.90;;;;;;5100357;28;20218;-89
2022/08/30 00:30:27;;;;;;;10.95;9.85;;;15.80;99.90;;;;;;5106623;28;20227;-89
2022/08/30 00:32:55;;;;;;;12.43;10.13;;;15.70;99.90;;;;;;5101075;28;20199;-89
2022/08/30 00:35:22;;;;;;;11.55;9.90;;;15.70;99.90;;;;;;5107136;28;20192;-89
2022/08/30 00:37:49;;;;;;;10.57;9.48;;;15.70;99.90;;;;;;5103669;28;20200;-89
2022/08/30 00:40:19;;;;;;;10.40;9.35;;;15.70;99.90;;;;;;5116309;28;20253;-89
2022/08/30 00:42:48;;;;;;;10.35;9.32;;;15.70;99.90;;;;;;5115378;27;20249;-89
2022/08/30 00:45:18;;;;;;;13.65;9.52;;;15.70;99.90;;;;;;5107174;28;20212;-89
2022/08/30 00:47:46;;;;;;;10.60;9.23;;;15.70;99.90;;;;;;5097825;28;20197;-89
2022/08/30 00:50:18;;;;;;;10.60;9.45;;;15.70;99.90;;;;;;5113221;28;20214;-89
2022/08/30 00:52:47;;;;;;;10.77;9.18;;;15.80;99.90;;;;;;5108007;28;20225;-89
2022/08/30 00:55:16;;;;;;;10.60;9.43;;;15.80;99.90;;;;;;5103735;27;20196;-89
2022/08/30 00:57:46;;;;;;;10.00;8.90;;;15.70;99.90;;;;;;5114323;28;20188;-89
2022/08/30 01:00:15;;;;;;;11.85;9.68;;;15.60;99.90;;;;;;5112551;28;20227;-89
2022/08/30 01:02:45;;;;;;;9.93;8.93;;;15.50;99.90;;;;;;5110350;28;20196;-89
2022/08/30 01:05:14;;;;;;;10.68;9.40;;;15.60;99.90;;;;;;5115708;28;20192;-88
2022/08/30 01:07:42;;;;;;;10.82;9.73;;;15.70;99.90;;;;;;5117435;28;20195;-89
2022/08/30 01:10:14;;;;;;;10.85;9.80;;;15.60;99.90;;;;;;5109082;28;20554;-88
2022/08/30 01:12:42;;;;;;;10.20;9.18;;;15.70;99.90;;;;;;5103259;28;20221;-88
2022/08/30 01:15:11;;;;;;;10.88;9.02;;;15.60;99.90;;;;;;5108526;28;20287;-88
2022/08/30 01:17:40;;;;;;;10.70;9.60;;;15.60;99.90;;;;;;5109168;28;20239;-88
2022/08/30 01:20:09;;;;;;;9.38;8.35;;;15.60;99.90;;;;;;5110567;27;20199;-88
2022/08/30 01:22:44;;;;;;;10.02;9.02;;;15.50;99.90;;;;;;5112586;28;20200;-88
2022/08/30 01:25:14;;;;;;;11.02;9.30;;;15.70;99.90;;;;;;5108287;28;20561;-88
2022/08/30 01:27:46;;;;;;;10.90;8.68;;;15.80;99.90;;;;;;5117377;28;20204;-89
2022/08/30 01:30:14;;;;;;;12.05;9.30;;;15.70;99.90;;;;;;5101628;28;20212;-89
2022/08/30 01:32:43;;;;;;;11.02;9.38;;;15.60;99.90;;;;;;5106358;28;20200;-89
2022/08/30 01:35:10;;;;;;;10.80;9.70;;;15.40;99.90;;;;;;5107998;28;20227;-89
2022/08/30 01:37:38;;;;;;;10.57;9.45;;;15.30;99.90;;;;;;5109375;28;20191;-89
2022/08/30 01:40:07;;;;;;;10.25;9.20;;;15.40;99.90;;;;;;5097033;28;20204;-89
2022/08/30 01:42:37;;;;;;;14.35;9.32;;;15.40;99.90;;;;;;5102015;28;20193;-90
2022/08/30 01:45:05;;;;;;;10.60;9.15;;;15.20;99.90;;;;;;5100183;28;20223;-89
2022/08/30 01:47:32;;;;;;;10.30;9.30;;;15.20;99.90;;;;;;5102032;28;20200;-89
2022/08/30 01:49:59;;;;;;;10.27;9.25;;;15.20;99.90;;;;;;5102124;28;20667;-89
2022/08/30 01:52:27;;;;;;;11.43;9.32;;;15.20;99.90;;;;;;5106131;28;20250;-89
2022/08/30 01:55:00;;;;;;;12.82;9.73;;;15.20;99.90;;;;;;5097244;28;20200;-89
2022/08/30 01:57:27;;;;;;;12.20;9.40;;;15.10;99.90;;;;;;5100472;28;20204;-89
2022/08/30 01:59:55;;;;;;;10.73;9.30;;;15.10;99.90;;;;;;5105886;28;20673;-89
2022/08/30 02:02:24;;;;;;;9.80;8.77;;;15.10;99.90;;;;;;5101608;28;20599;-89
2022/08/30 02:04:52;;;;;;;10.32;9.02;;;15.20;99.90;;;;;;5102310;28;20348;-89
2022/08/30 02:07:19;;;;;;;10.43;9.32;;;15.20;99.90;;;;;;5106891;28;20229;-89
2022/08/30 02:09:46;;;;;;;11.35;9.38;;;15.10;99.90;;;;;;5101210;28;20208;-89
2022/08/30 02:12:14;;;;;;;13.43;9.80;;;15.00;99.90;;;;;;5100202;28;20211;-89
2022/08/30 02:14:41;;;;;;;12.05;9.82;;;14.90;99.90;;;;;;5105098;28;20242;-89
2022/08/30 02:17:11;;;;;;;10.50;9.50;;;14.80;99.90;;;;;;5106216;28;20200;-89
2022/08/30 02:19:38;;;;;;;10.35;9.32;;;14.80;99.90;;;;;;5109527;28;20582;-89
2022/08/30 02:22:05;;;;;;;10.00;9.00;;;14.80;99.90;;;;;;5102134;28;20231;-89
2022/08/30 02:24:33;;;;;;;11.55;9.52;;;14.70;99.90;;;;;;5105010;28;20192;-89
2022/08/30 02:27:00;;;;;;;11.32;10.18;;;14.60;99.90;;;;;;5101577;28;20204;-89
2022/08/30 02:29:27;;;;;;;12.07;9.93;;;14.60;99.90;;;;;;5110731;28;20196;-89
2022/08/30 02:31:54;;;;;;;11.55;10.25;;;14.60;99.90;;;;;;5096473;28;20231;-89
2022/08/30 02:34:22;;;;;;;13.25;10.20;;;14.60;99.90;;;;;;5099759;28;20573;-89
2022/08/30 02:36:49;;;;;;;10.63;9.52;;;14.50;99.90;;;;;;5106813;28;20305;-89
2022/08/30 02:39:16;;;;;;;12.32;9.88;;;14.60;99.90;;;;;;5102473;28;20197;-89
2022/08/30 02:41:43;;;;;;;10.68;9.57;;;14.50;99.90;;;;;;5101499;28;20732;-89
2022/08/30 02:44:11;;;;;;;10.57;8.98;;;14.60;99.90;;;;;;5100187;28;20223;-89
2022/08/30 02:46:43;;;;;;;10.98;9.95;;;14.70;99.90;;;;;;5107007;27;20211;-89
2022/08/30 02:49:10;;;;;;;9.88;8.88;;;14.70;99.90;;;;;;5094700;28;20196;-89
2022/08/30 02:51:38;;;;;;;10.68;9.40;;;14.70;99.90;;;;;;5096006;28;20211;-89
2022/08/30 02:54:06;;;;;;;12.15;9.10;;;14.80;99.90;;;;;;5101317;28;20277;-89
2022/08/30 02:56:32;;;;;;;10.23;9.23;;;14.80;99.90;;;;;;5106194;28;20207;-89
2022/08/30 02:58:59;;;;;;;12.25;9.25;;;14.80;99.90;;;;;;5125892;28;20180;-89
2022/08/30 03:01:26;;;;;;;10.27;9.30;;;14.60;99.90;;;;;;5123589;28;20226;-88
2022/08/30 03:03:54;;;;;;;10.30;9.20;;;14.60;99.90;;;;;;5133888;28;20255;-88
2022/08/30 03:06:21;;;;;;;10.20;9.20;;;14.60;99.90;;;;;;5115252;28;20208;-88
2022/08/30 03:08:49;;;;;;;12.45;8.68;;;14.60;99.90;;;;;;5105590;28;20204;-89
2022/08/30 03:11:16;;;;;;;9.93;8.93;;;14.50;99.90;;;;;;5107244;28;20210;-89
2022/08/30 03:13:42;;;;;;;9.80;8.80;;;14.50;99.90;;;;;;5109260;28;20203;-89
2022/08/30 03:16:09;;;;;;;9.27;8.38;;;14.60;99.90;;;;;;5102571;28;20572;-89
2022/08/30 03:18:36;;;;;;;12.05;9.10;;;14.60;99.90;;;;;;5107451;28;21742;-89
2022/08/30 03:21:09;;;;;;;9.52;8.63;;;14.80;99.90;;;;;;5110520;28;20224;-89
2022/08/30 03:23:36;;;;;;;10.50;9.13;;;14.70;99.90;;;;;;5110296;28;20299;-88
2022/08/30 03:26:05;;;;;;;10.05;9.05;;;14.60;99.90;;;;;;5110054;28;20210;-89
2022/08/30 03:28:32;;;;;;;11.35;9.77;;;14.50;99.90;;;;;;5107366;28;20575;-89
2022/08/30 03:31:00;;;;;;;11.60;9.55;;;14.40;99.90;;;;;;5107324;28;20218;-89
2022/08/30 03:33:27;;;;;;;12.65;9.45;;;14.40;99.90;;;;;;5106719;28;20203;-89
2022/08/30 03:35:54;;;;;;;10.27;9.27;;;14.30;99.90;;;;;;5111627;28;20302;-89
2022/08/30 03:38:21;;;;;;;12.00;9.20;;;14.40;99.90;;;;;;5107053;28;20222;-88
2022/08/30 03:40:48;;;;;;;10.32;9.32;;;14.50;99.90;;;;;;5101522;28;20565;-89
2022/08/30 03:43:16;;;;;;;11.07;9.27;;;14.50;99.90;;;;;;5109112;28;20658;-89
2022/08/30 03:45:43;;;;;;;10.65;9.55;;;14.50;99.90;;;;;;5106568;28;20292;-89
2022/08/30 03:48:10;;;;;;;11.57;9.02;;;14.50;99.90;;;;;;5107846;28;20299;-89
2022/08/30 03:50:37;;;;;;;11.77;8.95;;;14.40;99.90;;;;;;5111238;28;20200;-88
2022/08/30 03:53:04;;;;;;;9.70;8.75;;;14.40;99.90;;;;;;5105884;28;20210;-89
2022/08/30 03:55:31;;;;;;;11.52;9.18;;;14.40;99.90;;;;;;5106989;28;20195;-90
2022/08/30 03:57:58;;;;;;;9.40;8.48;;;14.40;99.90;;;;;;5099687;28;20678;-89
2022/08/30 04:00:27;;;;;;;9.90;8.60;;;14.40;99.90;;;;;;5111171;28;20206;-89
2022/08/30 04:02:53;;;;;;;10.00;8.82;;;14.40;99.90;;;;;;5108012;28;20592;-89
2022/08/30 04:05:20;;;;;;;9.55;8.55;;;14.40;99.90;;;;;;5105893;28;20573;-89
2022/08/30 04:07:48;;;;;;;11.70;9.70;;;14.30;99.90;;;;;;5108721;28;20669;-89
2022/08/30 04:10:15;;;;;;;10.57;8.80;;;14.20;99.90;;;;;;5098385;28;20200;-89
2022/08/30 04:12:41;;;;;;;9.63;8.63;;;14.20;99.90;;;;;;5102418;28;20215;-89
2022/08/30 04:15:10;;;;;;;9.25;8.18;;;14.30;99.90;;;;;;5105019;28;20419;-89
2022/08/30 04:17:38;;;;;;;10.38;8.50;;;14.40;99.90;;;;;;5101608;28;20294;-89
2022/08/30 04:20:06;;;;;;;9.57;8.60;;;14.30;99.90;;;;;;5101700;28;20202;-89
2022/08/30 04:22:33;;;;;;;10.13;8.85;;;14.20;99.90;;;;;;5102433;28;20616;-89
2022/08/30 04:25:00;;;;;;;10.85;8.90;;;14.10;99.90;;;;;;5101417;28;20199;-89
2022/08/30 04:27:27;;;;;;;9.60;8.60;;;14.10;99.90;;;;;;5106136;28;20192;-89
2022/08/30 04:29:55;;;;;;;17.35;15.30;;;14.00;99.90;;;;;;5103858;28;20196;-89
2022/08/30 04:32:22;;;;;;;21.38;18.23;;;14.00;99.90;;;;;;5099329;28;20640;-89
2022/08/30 04:34:50;;;;;;;9.77;8.80;;;14.00;99.90;;;;;;5100204;28;20196;-89
2022/08/30 04:37:17;;;;;;;11.10;8.93;;;14.10;99.90;;;;;;5098999;28;20560;-89
2022/08/30 04:39:45;;;;;;;9.75;8.75;;;14.00;99.90;;;;;;5103667;28;20201;-89
2022/08/30 04:42:12;;;;;;;12.88;11.27;;;14.00;99.90;;;;;;5104478;28;20259;-89
2022/08/30 04:44:39;;;;;;;11.60;9.35;;;14.10;99.90;;;;;;5109356;28;20223;-89
2022/08/30 04:47:07;;;;;;;10.45;9.13;;;14.30;99.90;;;;;;5106081;28;20210;-88
2022/08/30 04:49:34;;;;;;;10.10;9.10;;;14.30;99.90;;;;;;5111167;28;20204;-88
2022/08/30 04:52:02;;;;;;;16.52;11.75;;;14.30;99.90;;;;;;5117201;28;20198;-89
2022/08/30 04:54:29;;;;;;;14.02;12.48;;;14.40;99.90;;;;;;5105794;28;20783;-88
2022/08/30 04:56:56;;;;;;;10.90;9.68;;;14.50;99.90;;;;;;5107726;28;20688;-89
2022/08/30 04:59:23;;;;;;;10.85;9.75;;;14.60;99.90;;;;;;5106392;28;20210;-88
2022/08/30 05:01:54;;;;;;;11.32;9.45;;;14.60;99.90;;;;;;5110435;28;20216;-88
2022/08/30 05:04:21;;;;;;;10.05;8.98;;;14.60;99.90;;;;;;5105227;28;20196;-88
2022/08/30 05:06:48;;;;;;;9.35;8.35;;;14.60;99.90;;;;;;5102166;28;20193;-89
2022/08/30 05:09:17;;;;;;;9.88;8.88;;;14.60;99.90;;;;;;5110343;28;20239;-89
2022/08/30 05:11:45;;;;;;;9.88;8.88;;;14.60;99.90;;;;;;5112668;27;20212;-89
2022/08/30 05:14:30;;;;;;;15.30;8.73;;;14.70;99.90;;;;;;5101928;28;21482;-88
2022/08/30 05:16:57;;;;;;;9.75;8.75;;;14.60;99.90;;;;;;5104095;28;20200;-88
2022/08/30 05:19:24;;;;;;;11.60;9.32;;;14.60;99.90;;;;;;5101726;27;20192;-88
2022/08/30 05:21:54;;;;;;;13.13;10.68;;;14.80;99.90;;;;;;5102093;28;20315;-89
2022/08/30 05:24:22;;;;;;;10.77;7.65;;;15.00;99.90;;;;;;5107142;28;20188;-88
2022/08/30 05:26:49;;;;;;;10.73;8.90;;;15.00;99.90;;;;;;5102843;28;20200;-89
2022/08/30 05:29:16;;;;;;;9.50;8.52;;;15.10;99.90;;;;;;5110683;28;20200;-89
2022/08/30 05:31:44;;;;;;;11.85;8.40;;;15.00;99.90;;;;;;5105588;28;20200;-88
2022/08/30 05:34:11;;;;;;;10.13;8.40;;;15.00;99.90;;;;;;5102575;28;20193;-86
2022/08/30 05:36:39;;;;;;;11.07;8.82;;;14.90;99.90;;;;;;5101349;27;20196;-88
2022/08/30 05:39:06;;;;;;;10.85;9.00;;;14.90;99.90;;;;;;5100395;28;20193;-88
2022/08/30 05:41:38;;;;;;;11.65;8.75;;;14.90;99.90;;;;;;5106958;28;20204;-88
2022/08/30 05:44:07;;;;;;;11.65;9.65;;;15.00;99.90;;;;;;5104808;28;20219;-88
2022/08/30 05:46:35;;;;;;;13.50;9.00;;;15.30;99.90;;;;;;5103398;28;20287;-87
2022/08/30 05:49:03;;;;;;;11.55;8.55;;;15.50;99.90;;;;;;5102142;28;20200;-87
2022/08/30 05:51:33;;;;;;;10.38;8.50;;;15.70;99.90;;;;;;5105381;28;20200;-88
2022/08/30 05:54:00;;;;;;;10.73;8.65;;;15.70;99.90;;;;;;5103854;28;20619;-87
2022/08/30 05:56:30;;;;;;;8.88;7.82;;;15.50;99.90;;;;;;5099752;28;20204;-88
2022/08/30 05:58:59;;;;;;;10.95;8.95;;;15.50;99.90;;;;;;5102935;28;20207;-88
2022/08/30 06:01:28;;;;;;;9.98;7.88;;;15.60;99.90;;;;;;5106498;28;20197;-88
2022/08/30 06:03:57;;;;;;;8.90;8.00;;;15.70;99.90;;;;;;5100024;28;20208;-89
2022/08/30 06:06:24;;;;;;;9.80;7.82;;;15.70;99.90;;;;;;5098720;28;20291;-88
2022/08/30 06:08:51;;;;;;;8.75;7.82;;;15.80;99.90;;;;;;5098584;28;20204;-88
2022/08/30 06:11:20;;;;;;;10.07;8.20;;;15.90;99.90;;;;;;5103265;28;20205;-88
2022/08/30 06:13:47;;;;;;;9.70;8.10;;;15.90;99.90;;;;;;5105015;28;20557;-88
2022/08/30 06:16:17;;;;;;;9.32;8.30;;;16.10;99.90;;;;;;5105253;28;20674;-88
2022/08/30 06:18:45;;;;;;;11.60;8.13;;;16.20;99.90;;;;;;5106406;28;20202;-87
2022/08/30 06:21:17;;;;;;;9.00;7.72;;;16.50;99.90;;;;;;5103566;28;20574;-87
2022/08/30 06:23:44;;;;;;;9.80;7.63;;;16.60;99.90;;;;;;5106394;28;20231;-88
2022/08/30 06:26:24;;;;;;;8.88;8.05;;;16.60;99.90;;;;;;5104498;28;21820;-87
2022/08/30 06:28:51;;;;;;;8.50;7.70;;;16.70;99.80;;;;;;5103956;28;20209;-88
2022/08/30 06:31:22;;;;;;;11.68;7.88;;;16.70;99.70;;;;;;5103655;28;20196;-87
2022/08/30 06:33:50;;;;;;;8.77;7.88;;;16.80;99.70;;;;;;5109864;28;20215;-88
2022/08/30 06:36:21;;;;;;;12.05;8.00;;;16.90;99.00;;;;;;5100321;28;20206;-87
2022/08/30 06:38:51;;;;;;;11.05;7.90;;;16.90;99.00;;;;;;5105561;28;20196;-89
2022/08/30 06:41:21;;;;;;;10.93;7.35;;;16.90;99.20;;;;;;5107731;28;20446;-88
2022/08/30 06:43:49;;;;;;;8.35;7.55;;;17.00;99.10;;;;;;5096353;28;20228;-89
2022/08/30 06:46:21;;;;;;;8.48;7.47;;;17.10;99.30;;;;;;5111813;28;20196;-88
2022/08/30 06:48:48;;;;;;;7.68;6.97;;;17.30;99.20;;;;;;5110653;28;20209;-88
2022/08/30 06:51:15;;;;;;;10.07;7.95;;;17.30;99.20;;;;;;5109244;28;20220;-87
2022/08/30 06:53:42;;;;;;;8.05;6.90;;;17.30;98.50;;;;;;5099067;28;20239;-88
2022/08/30 06:56:11;;;;;;;9.02;7.72;;;17.40;98.30;;;;;;5109883;28;20585;-87
2022/08/30 06:58:39;;;;;;;10.48;7.32;;;17.60;97.50;;;;;;5112066;28;20203;-87
2022/08/30 07:01:14;;;;;;;8.68;7.78;;;17.70;97.60;;;;;;5114766;28;20586;-88
2022/08/30 07:03:43;;;;;;;8.48;6.97;;;17.80;97.60;;;;;;5110265;28;20687;-87
2022/08/30 07:06:10;;;;;;;10.02;7.07;;;17.90;97.60;;;;;;5111006;28;20282;-88
2022/08/30 07:08:38;;;;;;;10.10;7.47;;;18.00;97.60;;;;;;5104384;27;20232;-87
2022/08/30 07:11:06;;;;;;;7.85;7.05;;;18.10;97.70;;;;;;5102106;28;20200;-90
2022/08/30 07:13:33;;;;;;;9.77;7.35;;;18.20;97.70;;;;;;5102981;28;20569;-89
2022/08/30 07:16:00;;;;;;;7.32;6.65;;;18.30;97.70;;;;;;5110195;28;20218;-88
2022/08/30 07:21:16;;;;;;;7.97;7.18;;;18.50;97.40;;;;;;5098251;28;20199;-88
2022/08/30 07:23:43;;;;;;;9.68;7.60;;;18.70;97.40;;;;;;5099903;28;20220;-87
2022/08/30 07:26:14;;;;;;;9.57;7.50;;;18.80;96.10;;;;;;5102089;28;20195;-86
2022/08/30 07:28:43;;;;;;;8.57;7.68;;;19.00;96.10;;;;;;5103516;27;20203;-86
2022/08/30 07:31:12;;;;;;;10.25;8.13;;;19.10;94.80;;;;;;5095811;28;20199;-88
2022/08/30 07:33:48;;;;;;;7.45;6.75;;;19.20;93.90;;;;;;5104588;28;20196;-87
2022/08/30 07:36:17;;;;;;;9.23;7.32;;;19.40;93.30;;;;;;5101934;28;20583;-88
2022/08/30 07:38:45;;;;;;;12.40;7.32;;;19.50;92.50;;;;;;5102122;28;20196;-88
2022/08/30 07:41:18;;;;;;;7.28;6.65;;;19.60;92.50;;;;;;5112023;28;20200;-87
2022/08/30 07:43:45;;;;;;;7.72;6.93;;;19.70;92.60;;;;;;5109537;28;20690;-88
2022/08/30 07:46:12;;;;;;;7.97;7.28;;;19.70;93.50;;;;;;5097370;28;20199;-89
2022/08/30 07:48:40;;;;;;;11.13;7.90;;;19.80;93.40;;;;;;5106811;28;20196;-87
2022/08/30 07:51:10;;;;;;;11.35;7.75;;;20.00;93.10;;;;;;5101210;28;20275;-89
2022/08/30 07:53:38;;;;;;;8.30;7.40;;;20.10;93.00;;;;;;5110663;28;20206;-88
2022/08/30 07:56:05;;;;;;;10.18;7.47;;;20.20;92.80;;;;;;5097470;28;20208;-89
2022/08/30 07:58:33;;;;;;;8.45;7.60;;;20.20;92.60;;;;;;5104475;28;20712;-88
2022/08/30 08:01:00;;;;;;;7.97;7.18;;;20.40;91.50;;;;;;5102786;28;20961;-89
2022/08/30 08:03:28;;;;;;;9.32;7.28;;;20.50;90.70;;;;;;5099815;28;20212;-88
2022/08/30 08:05:56;;;;;;;8.48;7.05;;;20.50;90.80;;;;;;5101310;28;20187;-88
2022/08/30 08:08:23;;;;;;;8.70;7.75;;;20.60;89.10;;;;;;5103780;28;20682;-88
2022/08/30 08:10:51;;;;;;;9.40;7.32;;;20.60;90.30;;;;;;5107614;28;20231;-86
2022/08/30 08:13:48;;;;;;;12.43;7.82;;;20.60;89.90;;;;;;5106539;28;20200;-86
2022/08/30 08:16:15;;;;;;;8.18;7.38;;;20.80;90.40;;;;;;5106753;28;20222;-86
2022/08/30 08:18:42;;;;;;;7.60;6.80;;;20.80;87.60;;;;;;5102811;28;20196;-86
2022/08/30 08:21:09;;;;;;;7.85;7.05;;;20.90;88.00;;;;;;5104342;28;20193;-87
2022/08/30 08:23:36;;;;;;;7.57;6.88;;;21.10;86.00;;;;;;5105078;28;20227;-86
2022/08/30 08:26:04;;;;;;;10.07;7.03;;;21.20;85.10;;;;;;5100329;28;20596;-85
2022/08/30 08:28:31;;;;;;;10.20;7.72;;;21.20;87.20;;;;;;5104043;28;20199;-84
2022/08/30 08:31:00;;;;;;;8.35;7.35;;;21.40;82.70;;;;;;5107337;28;20662;-85
2022/08/30 08:33:30;;;;;;;9.20;7.43;;;21.50;83.20;;;;;;5108041;28;20204;-85
2022/08/30 08:36:00;;;;;;;9.68;6.93;;;21.60;80.50;;;;;;5105712;27;20200;-86
2022/08/30 08:38:27;;;;;;;7.97;7.18;;;21.60;82.00;;;;;;5109866;27;20189;-85
2022/08/30 08:41:03;;;;;;;9.00;6.90;;;21.60;82.00;;;;;;5114025;27;20199;-85
2022/08/30 08:43:36;;;;;;;8.38;6.70;;;21.80;79.70;;;;;;5100778;28;20695;-84
2022/08/30 08:46:08;;;;;;;7.20;6.38;;;21.90;78.30;;;;;;5113760;28;20196;-86
2022/08/30 08:48:41;;;;;;;7.55;6.40;;;22.00;77.80;;;;;;5109139;28;20201;-87
2022/08/30 08:54:05;;;;;;;7.40;6.22;;;22.40;66.10;;;;;;5110900;27;20313;-87
2022/08/30 08:56:33;;;;;;;8.27;6.25;;;22.60;65.10;;;;;;5117255;28;20202;-88
2022/08/30 08:59:01;;;;;;;7.30;6.53;;;22.70;61.50;;;;;;5112246;28;20500;-87
2022/08/30 09:01:30;;;;;;;7.45;6.20;;;22.80;58.40;;;;;;5109294;28;20196;-87
2022/08/30 09:04:01;;;;;;;7.80;6.50;;;22.90;58.60;;;;;;5109143;28;20231;-85
2022/08/30 09:06:43;;;;;;;6.47;5.82;;;23.10;58.40;;;;;;5111913;28;20196;-88
2022/08/30 09:09:10;;;;;;;6.85;6.07;;;23.40;62.30;;;;;;5107795;28;20208;-86
2022/08/30 09:11:38;;;;;;;8.38;5.15;;;23.60;55.00;;;;;;5106800;28;20236;-83
2022/08/30 09:14:10;;;;;;;5.38;4.55;;;24.70;37.20;;;;;;5106911;28;20200;-86
2022/08/30 09:16:54;;;;;;;5.72;4.93;;;26.10;32.50;;;;;;5105862;28;20196;-86
2022/08/30 09:19:42;;;;;;;5.43;4.93;;;27.60;26.10;;;;;;5107870;28;20195;-87
2022/08/30 09:22:25;;;;;;;5.50;5.00;;;29.60;19.30;;;;;;5102452;28;20591;-87
2022/08/30 09:24:59;;;;;;;6.10;5.15;;;30.80;17.00;;;;;;5108549;28;20548;-87
2022/08/30 09:27:29;;;;;;;6.15;5.63;;;31.70;16.40;;;;;;5105205;28;20210;-87
2022/08/30 09:30:01;;;;;;;5.50;5.00;;;32.80;14.00;;;;;;5110232;28;20244;-87
2022/08/30 09:32:32;;;;;;;5.80;5.20;;;32.90;12.50;;;;;;5103577;28;20200;-87
2022/08/30 09:34:59;;;;;;;6.18;5.25;;;32.60;13.70;;;;;;5105192;28;20196;-86
2022/08/30 09:37:37;;;;;;;6.72;5.97;;;33.20;13.10;;;;;;5112549;28;20195;-87
2022/08/30 09:40:15;;;;;;;6.90;5.85;;;33.30;11.50;;;;;;5108268;28;20192;-87
2022/08/30 09:42:45;;;;;;;5.97;5.38;;;32.60;12.60;;;;;;5112094;28;20197;-86
2022/08/30 09:45:30;;;;;;;5.63;5.20;;;32.90;12.50;;;;;;5119540;28;20223;-84
2022/08/30 09:47:57;;;;;;;6.00;5.50;;;33.10;10.20;;;;;;5117259;28;20199;-85
2022/08/30 09:50:32;;;;;;;5.68;5.22;;;34.40;8.80;;;;;;5120894;28;20210;-84
2022/08/30 09:53:10;;;;;;;5.65;5.20;;;35.00;7.70;;;;;;5119918;28;20200;-85
2022/08/30 09:55:59;;;;;;;5.93;5.40;;;33.90;9.60;;;;;;5115572;28;20214;-85
2022/08/30 09:58:41;;;;;;;6.40;5.90;;;33.60;9.80;;;;;;5122355;28;20200;-85
2022/08/30 10:01:14;;;;;;;6.50;5.95;;;33.40;9.90;;;;;;5118952;28;20290;-85
2022/08/30 10:03:49;;;;;;;6.20;5.53;;;33.60;10.00;;;;;;5122687;28;20233;-85
2022/08/30 10:06:27;;;;;;;6.68;6.18;;;34.10;10.10;;;;;;5123384;28;20646;-85
2022/08/30 10:09:04;;;;;;;6.57;6.00;;;34.40;9.20;;;;;;5120868;28;20271;-85
2022/08/30 10:11:37;;;;;;;6.03;5.30;;;34.00;9.90;;;;;;5118180;28;20199;-88
2022/08/30 10:14:24;;;;;;;7.45;5.78;;;34.20;9.10;;;;;;5111616;28;20204;-86
2022/08/30 10:17:00;;;;;;;7.68;5.80;;;33.30;11.50;;;;;;5115160;28;20276;-86
2022/08/30 10:19:41;;;;;;;7.93;5.63;;;32.40;13.60;;;;;;5118817;27;20205;-85
2022/08/30 10:22:13;;;;;;;5.75;5.00;;;31.70;13.50;;;;;;5122446;28;20214;-85
2022/08/30 10:24:44;;;;;;;6.50;5.30;;;32.70;10.80;;;;;;5122092;28;20219;-86
2022/08/30 10:27:16;;;;;;;5.57;5.18;;;32.10;11.80;;;;;;5122220;28;20199;-86
2022/08/30 10:29:46;;;;;;;5.95;5.35;;;33.00;10.70;;;;;;5109668;28;20298;-86
2022/08/30 10:32:23;;;;;;;5.43;4.93;;;32.50;12.20;;;;;;5120586;28;20199;-85
2022/08/30 10:34:55;;;;;;;6.10;5.50;;;32.60;11.70;;;;;;5112049;28;20540;-86
2022/08/30 10:37:25;;;;;;;6.78;4.97;;;32.50;11.40;;;;;;5118561;28;20293;-87
2022/08/30 10:39:57;;;;;;;5.88;5.30;;;32.80;10.00;;;;;;5113208;28;20289;-85
2022/08/30 10:42:26;;;;;;;6.00;5.40;;;32.90;11.30;;;;;;5112041;28;20253;-86
2022/08/30 10:45:01;;;;;;;6.65;5.38;;;32.60;14.20;;;;;;5114530;28;20519;-89
2022/08/30 10:47:36;;;;;;;5.47;5.07;;;31.40;15.40;;;;;;5100481;28;20210;-85
2022/08/30 10:50:11;;;;;;;5.35;4.90;;;31.90;11.80;;;;;;5111424;28;20282;-86
2022/08/30 10:52:43;;;;;;;7.80;5.07;;;31.90;12.60;;;;;;5110921;28;20202;-85
2022/08/30 10:55:15;;;;;;;5.78;5.28;;;31.60;13.20;;;;;;5108911;28;20677;-85
2022/08/30 10:57:44;;;;;;;5.85;5.35;;;32.10;13.60;;;;;;5112041;28;20192;-85
2022/08/30 11:00:14;;;;;;;5.00;4.50;;;32.50;12.90;;;;;;5115176;28;20283;-84
2022/08/30 11:06:09;;;;;;;4.72;4.25;;;32.70;10.60;;;;;;5160585;27;20548;-86
2022/08/30 11:09:01;;;;;;;5.47;5.07;;;31.90;9.40;;;;;;5146397;27;20191;-87
2022/08/30 11:11:41;;;;;;;6.28;5.20;;;30.80;13.40;;;;;;5149626;27;20182;-88
2022/08/30 11:14:11;;;;;;;5.25;4.57;;;29.80;15.80;;;;;;5143339;27;20761;-87
2022/08/30 11:16:40;;;;;;;4.93;4.53;;;29.60;15.00;;;;;;5129530;27;20225;-82
2022/08/30 11:19:16;;;;;;;4.63;4.20;;;29.10;16.20;;;;;;5136703;28;20569;-86
2022/08/30 11:21:51;;;;;;;5.10;4.60;;;29.10;16.20;;;;;;5128491;27;20202;-85
2022/08/30 11:24:20;;;;;;;5.07;4.47;;;28.70;16.00;;;;;;5131422;27;20225;-85
2022/08/30 11:27:01;;;;;;;5.75;4.95;;;28.50;15.90;;;;;;5131092;28;20199;-89
2022/08/30 11:29:40;;;;;;;7.65;4.32;;;28.30;17.10;;;;;;5133869;28;20207;-88
2022/08/30 11:32:23;;;;;;;7.30;4.28;;;28.20;15.80;;;;;;5128215;27;20190;-87
2022/08/30 11:34:55;;;;;;;5.80;4.97;;;27.90;18.50;;;;;;5119343;27;20199;-88
2022/08/30 11:37:37;;;;;;;5.97;5.05;;;28.00;18.70;;;;;;5124311;27;20199;-88
2022/08/30 11:40:09;;;;;;;5.20;4.70;;;27.60;18.20;;;;;;5122608;27;20203;-87
2022/08/30 11:42:43;;;;;;;6.78;4.95;;;27.50;20.60;;;;;;5110013;27;20294;-87
2022/08/30 11:45:42;;;;;;;4.50;4.10;;;27.70;19.60;;;;;;5116467;27;20825;-87
2022/08/30 11:48:41;;;;;;;7.55;4.93;;;27.90;19.20;;;;;;5111638;28;20202;-87
2022/08/30 11:51:33;;;;;;;8.93;4.55;;;28.00;16.30;;;;;;5112770;28;20214;-86
2022/08/30 11:54:09;;;;;;;5.07;4.57;;;27.70;19.70;;;;;;5110252;28;20207;-86
2022/08/30 11:56:48;;;;;;;5.95;5.35;;;27.80;18.90;;;;;;5111776;28;20237;-86
2022/08/30 11:59:25;;;;;;;5.00;4.53;;;27.60;20.00;;;;;;5107800;28;20206;-87
2022/08/30 12:01:52;;;;;;;6.53;4.80;;;27.50;18.50;;;;;;5111889;28;20199;-87
2022/08/30 12:04:34;;;;;;;8.32;5.90;;;27.60;18.80;;;;;;5113035;28;20686;-89
2022/08/30 12:07:04;;;;;;;5.88;4.82;;;27.60;19.80;;;;;;5119193;28;20203;-85
2022/08/30 12:10:04;;;;;;;6.00;4.60;;;27.50;18.20;;;;;;5112520;28;20678;-88
2022/08/30 12:12:52;;;;;;;6.00;4.75;;;27.50;17.70;;;;;;5106856;28;20200;-86
2022/08/30 12:15:58;;;;;;;5.40;4.90;;;27.20;18.10;;;;;;5109089;28;20201;-84
2022/08/30 12:18:32;;;;;;;5.28;4.80;;;27.00;19.30;;;;;;5095247;28;20560;-87
2022/08/30 12:21:14;;;;;;;4.82;4.35;;;26.90;19.10;;;;;;5084897;28;20211;-90
2022/08/30 12:23:49;;;;;;;5.07;4.63;;;26.90;19.10;;;;;;5086960;28;22405;-90
2022/08/30 12:29:15;;;;;;;5.20;4.75;;;27.30;18.90;;;;;;5088512;28;20802;-86
2022/08/30 12:31:46;;;;;;;6.32;4.78;;;27.20;18.30;;;;;;5087604;28;20211;-88
2022/08/30 12:34:23;;;;;;;10.18;4.97;;;27.40;19.80;;;;;;5095295;28;20204;-88
2022/08/30 12:37:02;;;;;;;6.10;4.63;;;27.30;20.20;;;;;;5090803;28;20192;-88
2022/08/30 12:39:31;;;;;;;6.43;4.47;;;27.10;19.80;;;;;;5092470;28;20208;-87
2022/08/30 12:42:13;;;;;;;5.13;4.65;;;27.20;19.90;;;;;;5096823;28;20718;-86
2022/08/30 12:44:43;;;;;;;5.43;4.93;;;27.10;18.70;;;;;;5081467;28;20280;-86
2022/08/30 12:47:13;;;;;;;5.95;5.35;;;26.90;19.20;;;;;;5093926;28;20200;-88
2022/08/30 12:49:45;;;;;;;8.23;4.97;;;26.50;20.00;;;;;;5096558;28;20656;-83
2022/08/30 12:52:22;;;;;;;5.90;4.85;;;26.40;19.70;;;;;;5099469;28;20228;-84
2022/08/30 12:54:49;;;;;;;6.22;5.00;;;26.40;19.60;;;;;;5094385;28;20195;-86
2022/08/30 12:57:40;;;;;;;5.68;4.60;;;26.80;19.80;;;;;;5098981;28;20196;-87
2022/08/30 13:00:09;;;;;;;6.05;4.20;;;27.10;18.40;;;;;;5105266;28;20196;-90
2022/08/30 13:02:51;;;;;;;6.88;4.72;;;27.30;18.10;;;;;;5096846;28;20206;-86
2022/08/30 13:05:34;;;;;;;6.63;4.95;;;27.20;20.00;;;;;;5090680;28;20630;-89
2022/08/30 13:08:28;;;;;;;6.75;4.78;;;27.10;20.50;;;;;;5094437;28;20219;-85
2022/08/30 13:11:24;;;;;;;8.07;5.03;;;27.10;20.30;;;;;;5103976;28;20196;-83
2022/08/30 13:13:59;;;;;;;8.45;5.13;;;27.00;20.00;;;;;;5097296;28;20225;-85
2022/08/30 13:16:34;;;;;;;6.15;5.47;;;27.10;20.50;;;;;;5093572;28;20188;-86